createdAt,value
2023-11-08T00:00:09.426Z,98750.98
2023-11-08T00:02:42.695Z,98756.10
2023-11-08T00:05:09.550Z,98756.65
2023-11-08T00:07:36.560Z,98753.92
2023-11-08T00:10:03.607Z,98755.24
2023-11-08T00:12:31.128Z,98762.11
2023-11-08T00:14:58.117Z,98752.29
2023-11-08T00:17:26.689Z,98752.27
2023-11-08T00:19:55.277Z,98745.39
2023-11-08T00:22:22.434Z,98742.95
2023-11-08T00:24:49.272Z,98743.80
2023-11-08T00:27:16.025Z,98739.46
2023-11-08T00:29:43.270Z,98736.41
2023-11-08T00:32:10.407Z,98735.88
2023-11-08T00:34:38.114Z,98730.59
2023-11-08T00:37:05.738Z,98728.90
2023-11-08T00:39:32.466Z,98728.08
2023-11-08T00:41:59.217Z,98727.19
2023-11-08T00:44:26.158Z,98733.43
2023-11-08T00:46:54.752Z,98729.98
2023-11-08T00:49:22.547Z,98735.22
2023-11-08T00:51:49.524Z,98733.73
2023-11-08T00:54:16.339Z,98732.52
2023-11-08T00:56:43.749Z,98732.35
2023-11-08T00:59:10.488Z,98730.64
2023-11-08T01:01:37.744Z,98734.04
2023-11-08T01:04:07.959Z,98731.70
2023-11-08T01:06:35.145Z,98731.00
2023-11-08T01:09:01.898Z,98720.00
2023-11-08T01:11:29.418Z,98704.31
2023-11-08T01:13:56.306Z,98693.81
2023-11-08T01:16:23.429Z,98688.60
2023-11-08T01:18:50.409Z,98685.58
2023-11-08T01:21:17.426Z,98683.27
2023-11-08T01:23:44.751Z,98679.45
2023-11-08T01:26:11.518Z,98676.54
2023-11-08T01:28:38.645Z,98676.36
2023-11-08T01:31:05.707Z,98677.04
2023-11-08T01:33:32.971Z,98668.03
2023-11-08T01:36:00.709Z,98657.92
2023-11-08T01:38:27.475Z,98659.88
2023-11-08T01:40:54.292Z,98669.07
2023-11-08T01:43:31.584Z,98674.71
2023-11-08T01:46:07.573Z,98672.52
2023-11-08T01:48:34.470Z,98667.02
2023-11-08T01:51:04.909Z,98660.67
2023-11-08T01:53:33.399Z,98650.16
2023-11-08T01:56:00.842Z,98653.33
2023-11-08T01:58:27.828Z,98647.69
2023-11-08T02:00:54.745Z,98640.29
2023-11-08T02:03:22.825Z,98636.60
2023-11-08T02:05:49.965Z,98631.65
2023-11-08T02:08:17.818Z,98631.92
2023-11-08T02:10:45.487Z,98625.77
2023-11-08T02:13:13.048Z,98622.56
2023-11-08T02:15:41.064Z,98617.41
2023-11-08T02:18:08.185Z,98615.76
2023-11-08T02:20:35.162Z,98607.60
2023-11-08T02:23:02.166Z,98603.02
2023-11-08T02:25:32.207Z,98600.77
2023-11-08T02:27:59.253Z,98606.27
2023-11-08T02:30:26.165Z,98604.84
2023-11-08T02:32:53.241Z,98605.75
2023-11-08T02:35:20.070Z,98608.40
2023-11-08T02:37:47.604Z,98608.45
2023-11-08T02:40:14.480Z,98609.12
2023-11-08T02:42:45.210Z,98617.55
2023-11-08T02:45:12.707Z,98622.44
2023-11-08T02:47:40.039Z,98617.29
2023-11-08T02:50:07.562Z,98617.55
2023-11-08T02:52:34.517Z,98616.42
2023-11-08T02:55:02.358Z,98611.73
2023-11-08T02:57:29.266Z,98615.20
2023-11-08T02:59:55.969Z,98618.92
2023-11-08T03:02:23.197Z,98619.23
2023-11-08T03:04:50.152Z,98618.73
2023-11-08T03:07:17.192Z,98618.52
2023-11-08T03:09:43.866Z,98617.69
2023-11-08T03:12:10.767Z,98623.36
2023-11-08T03:14:37.612Z,98625.67
2023-11-08T03:17:04.452Z,98620.72
2023-11-08T03:19:31.841Z,98614.89
2023-11-08T03:22:01.017Z,98607.64
2023-11-08T03:24:27.877Z,98596.02
2023-11-08T03:26:54.615Z,98599.29
2023-11-08T03:31:16.263Z,98596.67
2023-11-08T03:33:43.898Z,98594.04
2023-11-08T03:43:55.525Z,98590.59
2023-11-08T03:46:23.105Z,98595.77
2023-11-08T03:48:54.125Z,98591.38
2023-11-08T03:51:22.164Z,98592.72
2023-11-08T03:53:49.692Z,98594.23
2023-11-08T04:04:03.359Z,98594.65
2023-11-08T04:14:09.868Z,98591.41
2023-11-08T04:16:41.119Z,98582.83
2023-11-08T04:19:08.887Z,98587.47
2023-11-08T04:21:38.129Z,98583.04
2023-11-08T04:24:07.673Z,98579.75
2023-11-08T04:34:40.341Z,98565.34
2023-11-08T04:37:09.300Z,98572.43
2023-11-08T04:39:36.396Z,98576.09
2023-11-08T04:42:04.416Z,98572.73
2023-11-08T04:44:31.295Z,98586.47
2023-11-08T04:46:57.986Z,98576.44
2023-11-08T04:49:24.842Z,98563.91
2023-11-08T04:51:51.824Z,98563.73
2023-11-08T04:54:18.823Z,98559.36
2023-11-08T04:56:45.779Z,98548.29
2023-11-08T04:59:13.437Z,98541.33
2023-11-08T05:01:42.536Z,98546.91
2023-11-08T05:04:09.511Z,98550.73
2023-11-08T05:06:36.372Z,98550.61
2023-11-08T05:09:03.628Z,98546.85
2023-11-08T05:11:30.516Z,98539.36
2023-11-08T05:13:57.515Z,98536.78
2023-11-08T05:16:24.205Z,98548.20
2023-11-08T05:18:54.195Z,98551.95
2023-11-08T05:21:22.066Z,98546.53
2023-11-08T05:23:49.095Z,98542.33
2023-11-08T05:26:17.043Z,98545.81
2023-11-08T05:28:43.640Z,98541.29
2023-11-08T05:31:10.483Z,98537.58
2023-11-08T05:33:40.462Z,98533.23
2023-11-08T05:36:07.959Z,98526.89
2023-11-08T05:38:34.825Z,98517.58
2023-11-08T05:41:01.645Z,98514.95
2023-11-08T05:43:28.616Z,98522.90
2023-11-08T05:45:56.736Z,98521.41
2023-11-08T05:48:23.807Z,98522.89
2023-11-08T05:50:50.764Z,98521.93
2023-11-08T05:53:18.212Z,98520.39
2023-11-08T05:55:44.974Z,98513.75
2023-11-08T05:58:14.680Z,98507.27
2023-11-08T06:00:42.590Z,98504.70
2023-11-08T06:03:10.138Z,98500.73
2023-11-08T06:05:37.021Z,98495.88
2023-11-08T06:08:05.178Z,98492.80
2023-11-08T06:10:33.480Z,98496.30
2023-11-08T06:13:00.392Z,98505.23
2023-11-08T06:15:27.418Z,98508.95
2023-11-08T06:17:54.567Z,98509.23
2023-11-08T06:20:22.771Z,98509.71
2023-11-08T06:22:50.143Z,98510.10
2023-11-08T06:25:17.613Z,98518.04
2023-11-08T06:27:44.569Z,98515.77
2023-11-08T06:30:12.316Z,98512.98
2023-11-08T06:32:39.485Z,98512.61
2023-11-08T06:35:06.947Z,98508.70
2023-11-08T06:37:33.785Z,98504.83
2023-11-08T06:40:00.629Z,98507.40
2023-11-08T06:42:27.521Z,98505.97
2023-11-08T06:44:54.497Z,98506.52
2023-11-08T06:47:21.641Z,98500.11
2023-11-08T06:49:48.483Z,98498.36
2023-11-08T06:52:15.329Z,98494.94
2023-11-08T06:54:42.844Z,98494.42
2023-11-08T06:57:10.450Z,98493.68
2023-11-08T06:59:37.341Z,98486.81
2023-11-08T07:02:07.210Z,98480.31
2023-11-08T07:04:34.185Z,98474.56
2023-11-08T07:07:01.963Z,98469.41
2023-11-08T07:09:29.704Z,98460.66
2023-11-08T07:11:56.865Z,98464.19
2023-11-08T07:14:24.602Z,98452.64
2023-11-08T07:16:51.573Z,98444.63
2023-11-08T07:19:18.512Z,98437.60
2023-11-08T07:21:45.787Z,98429.77
2023-11-08T07:24:12.787Z,98434.94
2023-11-08T07:26:39.619Z,98443.04
2023-11-08T07:29:08.130Z,98449.02
2023-11-08T07:31:37.543Z,98446.70
2023-11-08T07:34:06.169Z,98446.14
2023-11-08T07:36:33.281Z,98445.86
2023-11-08T07:39:05.406Z,98446.86
2023-11-08T07:41:33.729Z,98436.77
2023-11-08T07:44:03.402Z,98438.71
2023-11-08T07:46:31.332Z,98432.66
2023-11-08T07:48:58.309Z,98426.77
2023-11-08T07:51:28.860Z,98429.59
2023-11-08T07:53:59.908Z,98431.27
2023-11-08T07:56:26.936Z,98434.70
2023-11-08T07:58:53.761Z,98434.73
2023-11-08T08:01:21.996Z,98435.42
2023-11-08T08:03:49.496Z,98427.85
2023-11-08T08:06:16.854Z,98425.77
2023-11-08T08:08:46.775Z,98425.56
2023-11-08T08:11:13.710Z,98423.95
2023-11-08T08:13:40.834Z,98429.45
2023-11-08T08:16:08.730Z,98428.78
2023-11-08T08:18:37.251Z,98420.98
2023-11-08T08:21:05.082Z,98418.38
2023-11-08T08:23:32.841Z,98422.24
2023-11-08T08:26:00.910Z,98425.17
2023-11-08T08:28:28.164Z,98428.86
2023-11-08T08:30:55.061Z,98430.73
2023-11-08T08:33:23.436Z,98424.91
2023-11-08T08:35:50.752Z,98417.46
2023-11-08T08:38:17.790Z,98415.08
2023-11-08T08:40:44.832Z,98419.50
2023-11-08T08:43:12.208Z,98426.41
2023-11-08T08:45:39.262Z,98428.84
2023-11-08T08:48:07.421Z,98436.17
2023-11-08T08:50:37.322Z,98448.62
2023-11-08T08:53:04.374Z,98453.73
2023-11-08T08:55:31.848Z,98452.88
2023-11-08T08:57:58.683Z,98453.10
2023-11-08T09:00:26.237Z,98455.38
2023-11-08T09:02:54.014Z,98467.22
2023-11-08T09:05:24.729Z,98470.05
2023-11-08T09:07:51.987Z,98470.09
2023-11-08T09:10:19.040Z,98468.08
2023-11-08T09:12:46.230Z,98464.29
2023-11-08T09:15:14.363Z,98458.21
2023-11-08T09:17:41.482Z,98453.95
2023-11-08T09:20:09.701Z,98451.58
2023-11-08T09:22:37.027Z,98451.70
2023-11-08T09:25:08.100Z,98443.55
2023-11-08T09:27:38.761Z,98431.63
2023-11-08T09:30:09.383Z,98421.87
2023-11-08T09:32:36.413Z,98418.86
2023-11-08T09:35:04.096Z,98425.88
2023-11-08T09:37:31.290Z,98425.78
2023-11-08T09:39:58.893Z,98422.61
2023-11-08T09:42:30.635Z,98421.22
2023-11-08T09:44:59.148Z,98424.09
2023-11-08T09:47:26.475Z,98418.83
2023-11-08T09:49:54.618Z,98416.99
2023-11-08T09:52:23.008Z,98414.66
2023-11-08T09:54:50.674Z,98425.66
2023-11-08T09:57:17.522Z,98424.75
2023-11-08T09:59:44.457Z,98420.08
2023-11-08T10:02:12.038Z,98416.27
2023-11-08T10:04:45.400Z,98414.04
2023-11-08T10:07:15.111Z,98414.82
2023-11-08T10:09:42.712Z,98412.95
2023-11-08T10:12:10.250Z,98410.27
2023-11-08T10:14:41.371Z,98400.63
2023-11-08T10:17:30.908Z,98396.41
2023-11-08T10:19:58.879Z,98390.59
2023-11-08T10:22:27.221Z,98386.33
2023-11-08T10:24:55.989Z,98379.74
2023-11-08T10:27:24.087Z,98371.83
2023-11-08T10:29:51.489Z,98365.91
2023-11-08T10:32:22.954Z,98361.64
2023-11-08T10:34:50.739Z,98351.91
2023-11-08T10:37:22.690Z,98344.25
2023-11-08T10:39:49.651Z,98339.57
2023-11-08T10:42:16.599Z,98338.90
2023-11-08T10:44:43.519Z,98338.08
2023-11-08T10:47:12.332Z,98332.39
2023-11-08T10:49:39.673Z,98328.68
2023-11-08T10:52:12.028Z,98330.43
2023-11-08T10:54:42.833Z,98325.02
2023-11-08T10:57:09.919Z,98324.73
2023-11-08T10:59:37.507Z,98324.27
2023-11-08T11:02:10.314Z,98321.36
2023-11-08T11:04:37.174Z,98318.84
2023-11-08T11:07:08.423Z,98316.87
2023-11-08T11:09:36.932Z,98316.98
2023-11-08T11:12:08.650Z,98325.33
2023-11-08T11:14:38.237Z,98331.67
2023-11-08T11:17:08.010Z,98335.04
2023-11-08T11:19:34.924Z,98334.89
2023-11-08T11:22:06.708Z,98325.63
2023-11-08T11:24:33.638Z,98325.55
2023-11-08T11:27:01.458Z,98322.29
2023-11-08T11:29:29.796Z,98319.19
2023-11-08T11:31:56.737Z,98318.41
2023-11-08T11:34:27.611Z,98312.75
2023-11-08T11:37:14.063Z,98308.47
2023-11-08T11:40:09.494Z,98309.09
2023-11-08T11:42:36.662Z,98315.34
2023-11-08T11:45:09.552Z,98319.65
2023-11-08T11:47:37.445Z,98323.23
2023-11-08T11:50:05.918Z,98319.79
2023-11-08T11:52:34.571Z,98316.02
2023-11-08T11:55:02.193Z,98320.79
2023-11-08T11:57:30.575Z,98316.08
2023-11-08T12:00:02.252Z,98323.74
2023-11-08T12:02:35.010Z,98323.83
2023-11-08T12:05:02.458Z,98326.18
2023-11-08T12:07:30.026Z,98333.17
2023-11-08T12:09:57.171Z,98348.96
2023-11-08T12:12:31.695Z,98355.21
2023-11-08T12:14:58.951Z,98365.11
2023-11-08T12:17:27.689Z,98372.21
2023-11-08T12:19:55.121Z,98370.58
2023-11-08T12:22:22.188Z,98363.23
2023-11-08T12:24:49.660Z,98362.11
2023-11-08T12:27:17.601Z,98365.52
2023-11-08T12:29:45.910Z,98364.30
2023-11-08T12:32:12.817Z,98365.71
2023-11-08T12:34:41.235Z,98365.01
2023-11-08T12:37:08.908Z,98368.53
2023-11-08T12:39:36.350Z,98372.45
2023-11-08T12:42:03.705Z,98376.45
2023-11-08T12:44:45.535Z,98381.17
2023-11-08T12:47:14.975Z,98385.68
2023-11-08T12:49:44.691Z,98381.86
2023-11-08T12:52:12.647Z,98379.63
2023-11-08T12:54:39.733Z,98382.78
2023-11-08T12:57:06.976Z,98385.47
2023-11-08T12:59:35.936Z,98389.64
2023-11-08T13:02:03.189Z,98390.55
2023-11-08T13:04:30.485Z,98392.27
2023-11-08T13:06:57.760Z,98393.02
2023-11-08T13:09:29.559Z,98392.85
2023-11-08T13:11:56.601Z,98388.73
2023-11-08T13:14:23.551Z,98384.08
2023-11-08T13:16:50.955Z,98384.30
2023-11-08T13:19:18.446Z,98390.67
2023-11-08T13:21:45.690Z,98397.59
2023-11-08T13:24:12.766Z,98397.82
2023-11-08T13:26:39.651Z,98393.98
2023-11-08T13:29:07.269Z,98389.41
2023-11-08T13:31:34.367Z,98389.05
2023-11-08T13:34:01.488Z,98388.79
2023-11-08T13:36:29.505Z,98388.89
2023-11-08T13:38:57.930Z,98394.41
2023-11-08T13:41:25.692Z,98392.30
2023-11-08T13:43:52.622Z,98391.01
2023-11-08T13:46:19.822Z,98395.14
2023-11-08T13:48:47.330Z,98394.40
2023-11-08T13:51:14.802Z,98405.49
2023-11-08T13:53:42.252Z,98402.86
2023-11-08T13:56:09.724Z,98403.09
2023-11-08T13:58:37.168Z,98399.05
2023-11-08T14:01:11.598Z,98396.14
2023-11-08T14:03:40.222Z,98392.80
2023-11-08T14:06:09.107Z,98395.39
2023-11-08T14:08:37.749Z,98397.62
2023-11-08T14:11:04.698Z,98396.08
2023-11-08T14:13:31.754Z,98393.67
2023-11-08T14:15:58.881Z,98389.83
2023-11-08T14:18:26.023Z,98392.48
2023-11-08T14:20:55.743Z,98395.80
2023-11-08T14:23:23.095Z,98394.55
2023-11-08T14:25:51.571Z,98397.38
2023-11-08T14:28:19.460Z,98396.09
2023-11-08T14:30:47.224Z,98396.20
2023-11-08T14:33:16.304Z,98397.55
2023-11-08T14:35:43.278Z,98393.70
2023-11-08T14:38:11.723Z,98395.09
2023-11-08T14:40:39.448Z,98393.61
2023-11-08T14:43:06.967Z,98399.55
2023-11-08T14:45:34.041Z,98402.02
2023-11-08T14:48:01.282Z,98410.94
2023-11-08T14:50:28.296Z,98412.55
2023-11-08T14:52:55.171Z,98403.94
2023-11-08T14:55:22.193Z,98408.09
2023-11-08T14:57:50.593Z,98412.45
2023-11-08T15:00:18.329Z,98417.25
2023-11-08T15:02:45.579Z,98418.33
2023-11-08T15:05:13.077Z,98414.05
2023-11-08T15:09:42.992Z,98419.80
2023-11-08T15:10:27.168Z,98420.64
2023-11-08T15:12:56.862Z,98422.13
2023-11-08T15:15:24.532Z,98431.38
2023-11-08T15:17:51.849Z,98431.30
2023-11-08T15:20:21.860Z,98428.66
2023-11-08T15:22:52.985Z,98434.25
2023-11-08T15:25:19.927Z,98439.67
2023-11-08T15:27:46.791Z,98429.71
2023-11-08T15:30:14.532Z,98437.11
2023-11-08T15:32:41.831Z,98437.00
2023-11-08T15:35:11.989Z,98437.74
2023-11-08T15:37:39.090Z,98441.40
2023-11-08T15:40:07.172Z,98443.91
2023-11-08T15:42:34.518Z,98445.32
2023-11-08T15:45:01.746Z,98450.64
2023-11-08T15:47:29.337Z,98456.48
2023-11-08T15:49:56.582Z,98458.30
2023-11-08T15:52:23.499Z,98458.55
2023-11-08T15:54:50.566Z,98463.51
2023-11-08T15:57:17.599Z,98461.86
2023-11-08T15:59:44.801Z,98464.34
2023-11-08T16:02:11.992Z,98470.04
2023-11-08T16:04:39.626Z,98465.35
2023-11-08T16:07:08.246Z,98473.23
2023-11-08T16:09:36.057Z,98480.87
2023-11-08T16:12:03.245Z,98481.33
2023-11-08T16:14:31.633Z,98481.05
2023-11-08T16:16:58.569Z,98482.42
2023-11-08T16:19:25.600Z,98480.00
2023-11-08T16:21:52.808Z,98479.73
2023-11-08T16:24:19.861Z,98480.61
2023-11-08T16:26:48.302Z,98481.02
2023-11-08T16:29:49.822Z,98483.93
2023-11-08T16:32:33.979Z,98479.76
2023-11-08T16:34:52.117Z,98484.04
2023-11-08T16:37:19.292Z,98487.39
2023-11-08T16:39:46.394Z,98490.88
2023-11-08T16:42:16.555Z,98491.61
2023-11-08T16:44:45.809Z,98488.45
2023-11-08T16:47:12.798Z,98496.27
2023-11-08T16:49:46.913Z,98502.19
2023-11-08T16:52:15.232Z,98501.02
2023-11-08T16:54:42.254Z,98505.25
2023-11-08T16:57:10.709Z,98500.59
2023-11-08T16:59:38.536Z,98500.01
2023-11-08T17:02:05.534Z,98502.30
2023-11-08T17:04:37.309Z,98501.56
2023-11-08T17:07:05.090Z,98503.64
2023-11-08T17:09:41.892Z,98499.85
2023-11-08T17:12:36.828Z,98508.46
2023-11-08T17:15:16.206Z,98508.33
2023-11-08T17:17:45.805Z,98511.67
2023-11-08T17:20:13.126Z,98517.36
2023-11-08T17:22:40.173Z,98519.54
2023-11-08T17:25:10.354Z,98518.79
2023-11-08T17:27:39.564Z,98520.61
2023-11-08T17:30:07.482Z,98519.99
2023-11-08T17:32:34.633Z,98521.55
2023-11-08T17:35:04.791Z,98525.32
2023-11-08T17:37:35.061Z,98521.10
2023-11-08T17:40:02.550Z,98523.66
2023-11-08T17:42:29.863Z,98528.87
2023-11-08T17:44:56.811Z,98533.80
2023-11-08T17:47:24.601Z,98532.70
2023-11-08T17:49:51.823Z,98533.88
2023-11-08T17:52:18.858Z,98530.27
2023-11-08T17:54:46.373Z,98529.47
2023-11-08T17:57:14.779Z,98528.52
2023-11-08T17:59:42.063Z,98532.29
2023-11-08T18:02:09.324Z,98533.70
2023-11-08T18:04:36.533Z,98534.09
2023-11-08T18:07:03.839Z,98537.20
2023-11-08T18:09:30.899Z,98542.19
2023-11-08T18:11:57.808Z,98544.60
2023-11-08T18:14:25.583Z,98546.60
2023-11-08T18:16:53.347Z,98547.92
2023-11-08T18:19:20.215Z,98548.55
2023-11-08T18:21:47.432Z,98545.80
2023-11-08T18:24:16.733Z,98549.89
2023-11-08T18:26:43.883Z,98548.67
2023-11-08T18:29:10.929Z,98547.35
2023-11-08T18:31:38.080Z,98544.10
2023-11-08T18:34:06.196Z,98545.38
2023-11-08T18:36:33.511Z,98548.41
2023-11-08T18:39:00.582Z,98545.58
2023-11-08T18:41:27.513Z,98546.91
2023-11-08T18:43:54.917Z,98549.02
2023-11-08T18:46:21.919Z,98544.90
2023-11-08T18:48:49.106Z,98556.56
2023-11-08T18:51:16.116Z,98557.04
2023-11-08T18:53:43.154Z,98556.63
2023-11-08T18:56:11.214Z,98552.52
2023-11-08T18:58:39.906Z,98553.85
2023-11-08T19:01:10.741Z,98553.20
2023-11-08T19:03:40.446Z,98546.63
2023-11-08T19:06:07.597Z,98551.80
2023-11-08T19:08:34.752Z,98550.87
2023-11-08T19:11:02.629Z,98555.58
2023-11-08T19:13:32.532Z,98556.93
2023-11-08T19:15:59.912Z,98556.70
2023-11-08T19:18:29.002Z,98557.33
2023-11-08T19:20:57.988Z,98552.74
2023-11-08T19:23:28.270Z,98557.69
2023-11-08T19:25:59.436Z,98561.50
2023-11-08T19:28:26.735Z,98559.84
2023-11-08T19:30:55.692Z,98560.44
2023-11-08T19:33:23.256Z,98561.92
2023-11-08T19:35:50.556Z,98553.96
2023-11-08T19:38:18.059Z,98554.56
2023-11-08T19:40:45.028Z,98560.00
2023-11-08T19:43:11.996Z,98557.45
2023-11-08T19:45:38.989Z,98556.75
2023-11-08T19:48:05.974Z,98557.86
2023-11-08T19:50:34.318Z,98555.89
2023-11-08T19:53:01.271Z,98553.66
2023-11-08T19:55:28.265Z,98552.77
2023-11-08T19:57:55.293Z,98554.27
2023-11-08T20:00:22.197Z,98557.70
2023-11-08T20:02:49.218Z,98562.23
2023-11-08T20:05:16.617Z,98567.00
2023-11-08T20:07:45.398Z,98562.39
2023-11-08T20:10:13.849Z,98566.06
2023-11-08T20:12:45.023Z,98566.17
2023-11-08T20:15:12.259Z,98570.58
2023-11-08T20:17:39.374Z,98575.61
2023-11-08T20:20:07.512Z,98578.73
2023-11-08T20:22:34.553Z,98576.99
2023-11-08T20:25:01.593Z,98573.90
2023-11-08T20:27:28.931Z,98576.70
2023-11-08T20:29:55.775Z,98578.73
2023-11-08T20:32:23.228Z,98582.19
2023-11-08T20:34:51.649Z,98580.11
2023-11-08T20:37:18.893Z,98581.09
2023-11-08T20:39:45.970Z,98581.48
2023-11-08T20:42:12.949Z,98571.98
2023-11-08T20:44:40.101Z,98570.56
2023-11-08T20:47:08.392Z,98568.10
2023-11-08T20:49:36.755Z,98577.36
2023-11-08T20:52:04.388Z,98574.10
2023-11-08T20:54:31.470Z,98578.30
2023-11-08T20:56:59.952Z,98580.27
2023-11-08T20:59:27.204Z,98572.58
2023-11-08T21:01:54.968Z,98576.45
2023-11-08T21:04:22.456Z,98582.64
2023-11-08T21:06:49.796Z,98583.66
2023-11-08T21:09:18.077Z,98588.11
2023-11-08T21:11:45.509Z,98589.14
2023-11-08T21:14:13.125Z,98587.48
2023-11-08T21:16:40.228Z,98586.86
2023-11-08T21:19:08.879Z,98588.93
2023-11-08T21:21:35.967Z,98588.20
2023-11-08T21:24:03.305Z,98594.80
2023-11-08T21:26:30.490Z,98592.95
2023-11-08T21:28:57.917Z,98595.88
2023-11-08T21:31:26.026Z,98598.63
2023-11-08T21:33:53.199Z,98597.30
2023-11-08T21:36:22.129Z,98602.39
2023-11-08T21:38:49.304Z,98606.79
2023-11-08T21:41:16.426Z,98603.60
2023-11-08T21:43:43.387Z,98603.16
2023-11-08T21:46:10.376Z,98603.98
2023-11-08T21:48:37.589Z,98606.25
2023-11-08T21:51:05.959Z,98609.54
2023-11-08T21:53:33.174Z,98607.73
2023-11-08T21:56:00.684Z,98608.61
2023-11-08T21:58:27.649Z,98615.30
2023-11-08T22:00:55.553Z,98620.56
2023-11-08T22:03:22.889Z,98613.13
2023-11-08T22:05:50.157Z,98618.16
2023-11-08T22:08:18.241Z,98613.60
2023-11-08T22:10:46.113Z,98615.73
2023-11-08T22:13:14.928Z,98611.79
2023-11-08T22:15:41.872Z,98611.78
2023-11-08T22:18:09.249Z,98608.85
2023-11-08T22:20:36.288Z,98608.30
2023-11-08T22:23:04.145Z,98601.72
2023-11-08T22:25:31.183Z,98603.36
2023-11-08T22:27:59.871Z,98600.75
2023-11-08T22:30:26.898Z,98598.39
2023-11-08T22:32:53.876Z,98605.61
2023-11-08T22:35:21.602Z,98598.86
2023-11-08T22:37:49.489Z,98596.50
2023-11-08T22:40:17.302Z,98594.20
2023-11-08T22:42:44.216Z,98597.46
2023-11-08T22:45:11.324Z,98601.52
2023-11-08T22:47:38.889Z,98606.26
2023-11-08T22:50:06.461Z,98605.73
2023-11-08T22:52:33.599Z,98600.67
2023-11-08T22:55:00.601Z,98605.02
2023-11-08T22:57:27.599Z,98606.23
2023-11-08T22:59:54.357Z,98607.98
2023-11-08T23:02:21.179Z,98609.02
2023-11-08T23:04:48.598Z,98601.85
2023-11-08T23:07:15.590Z,98603.90
2023-11-08T23:09:45.388Z,98607.80
2023-11-08T23:12:12.243Z,98610.52
2023-11-08T23:14:39.942Z,98614.21
2023-11-08T23:17:06.763Z,98614.24
2023-11-08T23:19:33.680Z,98616.80
2023-11-08T23:22:02.021Z,98617.49
2023-11-08T23:24:29.011Z,98620.14
2023-11-08T23:26:55.737Z,98621.23
2023-11-08T23:29:22.710Z,98618.35
2023-11-08T23:31:49.429Z,98617.14
2023-11-08T23:34:16.815Z,98618.90
2023-11-08T23:36:43.633Z,98621.30
2023-11-08T23:39:10.416Z,98628.41
2023-11-08T23:41:38.442Z,98626.91
2023-11-08T23:44:08.142Z,98621.34
2023-11-08T23:46:36.028Z,98619.61
2023-11-08T23:49:03.051Z,98627.84
2023-11-08T23:51:30.340Z,98632.55
2023-11-08T23:53:57.360Z,98632.95
2023-11-08T23:56:24.403Z,98633.93
2023-11-08T23:58:51.249Z,98631.77
